createdAt,value
2022-11-28T00:01:25.542Z,1.50
2022-11-28T00:03:52.381Z,1.60
2022-11-28T00:06:19.611Z,1.60
2022-11-28T00:08:46.793Z,1.60
2022-11-28T00:11:15.343Z,1.70
2022-11-28T00:13:42.370Z,1.70
2022-11-28T00:16:12.984Z,1.70
2022-11-28T00:18:40.309Z,1.70
2022-11-28T00:21:10.336Z,1.70
2022-11-28T00:23:37.373Z,1.70
2022-11-28T00:26:08.944Z,1.70
2022-11-28T00:28:36.643Z,1.80
2022-11-28T00:31:03.989Z,1.80
2022-11-28T00:33:32.347Z,1.80
2022-11-28T00:36:01.690Z,1.80
2022-11-28T00:38:28.896Z,1.80
2022-11-28T00:41:00.908Z,1.80
2022-11-28T00:43:28.483Z,1.80
2022-11-28T00:45:55.797Z,1.90
2022-11-28T00:48:23.030Z,1.90
2022-11-28T00:50:50.525Z,1.90
2022-11-28T00:53:17.432Z,1.90
2022-11-28T00:55:44.359Z,1.90
2022-11-28T00:58:11.546Z,2.00
2022-11-28T01:00:38.432Z,1.90
2022-11-28T01:03:05.429Z,2.00
2022-11-28T01:05:32.283Z,2.00
2022-11-28T01:07:59.360Z,2.00
2022-11-28T01:10:27.135Z,2.00
2022-11-28T01:12:54.086Z,2.00
2022-11-28T01:15:20.984Z,2.00
2022-11-28T01:17:48.059Z,2.00
2022-11-28T01:20:15.014Z,2.00
2022-11-28T01:22:41.948Z,2.00
2022-11-28T01:25:08.879Z,2.00
2022-11-28T01:27:35.757Z,2.00
2022-11-28T01:30:02.607Z,2.00
2022-11-28T01:32:29.470Z,2.00
2022-11-28T01:34:56.290Z,2.00
2022-11-28T01:37:23.129Z,2.00
2022-11-28T01:39:50.070Z,2.00
2022-11-28T01:42:19.019Z,2.00
2022-11-28T01:44:48.631Z,1.90
2022-11-28T01:47:20.811Z,2.00
2022-11-28T01:49:49.062Z,1.90
2022-11-28T01:52:19.569Z,1.90
2022-11-28T01:54:48.851Z,1.80
2022-11-28T01:57:20.778Z,1.80
2022-11-28T01:59:57.035Z,1.70
2022-11-28T02:02:29.458Z,1.70
2022-11-28T02:04:58.096Z,1.70
2022-11-28T02:07:25.121Z,1.70
2022-11-28T02:09:51.992Z,1.60
2022-11-28T02:12:46.348Z,1.60
2022-11-28T02:15:19.216Z,1.60
2022-11-28T02:18:10.105Z,1.50
2022-11-28T02:21:06.255Z,1.50
2022-11-28T02:24:11.904Z,1.50
2022-11-28T02:26:52.606Z,1.40
2022-11-28T02:29:52.158Z,1.40
2022-11-28T02:32:49.419Z,1.40
2022-11-28T02:35:42.150Z,1.40
2022-11-28T02:38:30.658Z,1.30
2022-11-28T02:41:03.488Z,1.30
2022-11-28T02:43:52.246Z,1.30
2022-11-28T02:46:28.948Z,1.30
2022-11-28T02:49:05.521Z,1.30
2022-11-28T02:51:43.547Z,1.40
2022-11-28T02:54:13.059Z,1.40
2022-11-28T02:56:46.650Z,1.50
2022-11-28T02:59:38.127Z,1.50
2022-11-28T03:02:23.868Z,1.60
2022-11-28T03:05:14.811Z,1.60
2022-11-28T03:08:09.750Z,1.70
2022-11-28T03:11:19.958Z,1.70
2022-11-28T03:14:30.585Z,1.80
2022-11-28T03:17:07.475Z,1.90
2022-11-28T03:19:39.893Z,2.00
2022-11-28T03:22:21.373Z,2.00
2022-11-28T03:25:23.301Z,2.10
2022-11-28T03:28:02.167Z,2.20
2022-11-28T03:30:36.367Z,2.30
2022-11-28T03:33:05.181Z,2.40
2022-11-28T03:35:37.723Z,2.50
2022-11-28T03:38:13.219Z,2.50
2022-11-28T03:40:45.911Z,2.60
2022-11-28T03:43:19.318Z,2.70
2022-11-28T03:45:50.920Z,2.70
2022-11-28T03:48:31.495Z,2.80
2022-11-28T03:51:27.682Z,2.80
2022-11-28T03:54:14.471Z,2.80
2022-11-28T03:56:49.347Z,2.80
2022-11-28T03:59:50.023Z,2.80
2022-11-28T04:02:42.472Z,2.80
2022-11-28T04:05:30.720Z,2.80
2022-11-28T04:08:19.924Z,2.80
2022-11-28T04:11:08.718Z,2.90
2022-11-28T04:13:43.011Z,2.90
2022-11-28T04:16:26.491Z,2.90
2022-11-28T04:19:11.829Z,2.90
2022-11-28T04:21:54.604Z,2.90
2022-11-28T04:24:27.127Z,2.90
2022-11-28T04:27:05.003Z,3.00
2022-11-28T04:29:38.232Z,3.00
2022-11-28T04:32:06.646Z,3.00
2022-11-28T04:34:36.226Z,3.00
2022-11-28T04:37:09.816Z,3.10
2022-11-28T04:39:40.156Z,3.10
2022-11-28T04:42:13.822Z,3.10
2022-11-28T04:44:53.166Z,3.10
2022-11-28T04:47:20.078Z,3.10
2022-11-28T04:49:47.051Z,3.10
2022-11-28T04:52:37.452Z,3.10
2022-11-28T04:55:22.394Z,3.20
2022-11-28T04:57:57.532Z,3.20
2022-11-28T05:00:25.731Z,3.20
2022-11-28T05:02:54.587Z,3.20
2022-11-28T05:05:28.409Z,3.20
2022-11-28T05:07:55.336Z,3.20
2022-11-28T05:10:22.187Z,3.20
2022-11-28T05:12:49.020Z,3.30
2022-11-28T05:15:19.297Z,3.30
2022-11-28T05:17:46.978Z,3.30
2022-11-28T05:20:14.469Z,3.40
2022-11-28T05:22:41.499Z,3.40
2022-11-28T05:25:08.744Z,3.40
2022-11-28T05:27:35.820Z,3.40
2022-11-28T05:30:03.064Z,3.40
2022-11-28T05:32:31.302Z,3.40
2022-11-28T05:34:58.650Z,3.50
2022-11-28T05:37:25.792Z,3.50
2022-11-28T05:39:52.654Z,3.60
2022-11-28T05:42:20.008Z,3.60
2022-11-28T05:44:48.048Z,3.60
2022-11-28T05:47:15.908Z,3.60
2022-11-28T05:49:43.526Z,3.60
2022-11-28T05:52:10.473Z,3.60
2022-11-28T05:54:37.455Z,3.60
2022-11-28T05:57:06.492Z,3.70
2022-11-28T05:59:33.898Z,3.70
2022-11-28T06:02:00.938Z,3.70
2022-11-28T06:04:28.593Z,3.70
2022-11-28T06:06:55.740Z,3.60
2022-11-28T06:09:25.883Z,3.60
2022-11-28T06:11:53.098Z,3.60
2022-11-28T06:14:20.173Z,3.60
2022-11-28T06:16:47.091Z,3.60
2022-11-28T06:19:14.182Z,3.50
2022-11-28T06:21:41.329Z,3.50
2022-11-28T06:24:09.702Z,3.40
2022-11-28T06:26:36.870Z,3.40
2022-11-28T06:29:04.514Z,3.40
2022-11-28T06:31:31.588Z,3.40
2022-11-28T06:33:59.059Z,3.40
2022-11-28T06:36:41.077Z,3.40
2022-11-28T06:39:10.842Z,3.40
2022-11-28T06:41:38.117Z,3.40
2022-11-28T06:44:04.982Z,3.40
2022-11-28T06:46:31.890Z,3.40
2022-11-28T06:48:58.831Z,3.40
2022-11-28T06:51:25.854Z,3.40
2022-11-28T06:53:54.071Z,3.50
2022-11-28T06:56:21.305Z,3.40
2022-11-28T06:58:54.015Z,3.40
2022-11-28T07:01:22.893Z,3.50
2022-11-28T07:03:50.365Z,3.50
2022-11-28T07:06:19.817Z,3.50
2022-11-28T07:08:47.331Z,3.50
2022-11-28T07:11:29.883Z,3.50
2022-11-28T07:13:57.716Z,3.50
2022-11-28T07:16:31.209Z,3.50
2022-11-28T07:18:59.334Z,3.50
2022-11-28T07:21:27.149Z,3.50
2022-11-28T07:23:54.014Z,3.50
2022-11-28T07:26:21.879Z,3.50
2022-11-28T07:28:49.590Z,3.40
2022-11-28T07:31:19.921Z,3.40
2022-11-28T07:33:49.180Z,3.40
2022-11-28T07:36:18.097Z,3.30
2022-11-28T07:38:49.060Z,3.30
2022-11-28T07:41:16.615Z,3.30
2022-11-28T07:43:45.679Z,3.40
2022-11-28T07:46:14.884Z,3.30
2022-11-28T07:48:42.335Z,3.30
2022-11-28T07:51:24.332Z,3.30
2022-11-28T07:53:52.033Z,3.30
2022-11-28T07:56:21.929Z,3.30
2022-11-28T07:58:49.406Z,3.30
2022-11-28T08:01:22.407Z,3.40
2022-11-28T08:03:50.312Z,3.40
2022-11-28T08:06:19.343Z,3.50
2022-11-28T08:08:47.367Z,3.50
2022-11-28T08:11:16.489Z,3.60
2022-11-28T08:13:43.414Z,3.60
2022-11-28T08:16:14.337Z,3.60
2022-11-28T08:18:41.554Z,3.60
2022-11-28T08:21:11.805Z,3.70
2022-11-28T08:23:39.955Z,3.70
2022-11-28T08:26:09.746Z,3.80
2022-11-28T08:28:37.049Z,3.80
2022-11-28T08:31:25.588Z,3.80
2022-11-28T08:33:54.863Z,3.90
2022-11-28T08:36:22.209Z,3.90
2022-11-28T08:39:03.388Z,3.90
2022-11-28T08:41:36.382Z,3.90
2022-11-28T08:44:03.303Z,3.90
2022-11-28T08:46:30.535Z,3.90
2022-11-28T08:48:57.413Z,3.90
2022-11-28T08:51:24.447Z,4.00
2022-11-28T08:53:57.883Z,4.00
2022-11-28T08:56:26.389Z,4.00
2022-11-28T08:58:53.269Z,4.00
2022-11-28T09:01:22.800Z,4.00
2022-11-28T09:03:50.453Z,4.10
2022-11-28T09:06:18.342Z,4.10
2022-11-28T09:08:45.517Z,4.10
2022-11-28T09:11:14.739Z,4.10
2022-11-28T09:13:42.103Z,4.20
2022-11-28T09:16:09.414Z,4.20
2022-11-28T09:18:36.641Z,4.20
2022-11-28T09:21:09.517Z,4.20
2022-11-28T09:23:41.242Z,4.20
2022-11-28T09:26:12.392Z,4.30
2022-11-28T09:28:39.508Z,4.30
2022-11-28T09:31:07.624Z,4.30
2022-11-28T09:33:35.096Z,4.20
2022-11-28T09:36:07.574Z,4.20
2022-11-28T09:38:34.908Z,4.20
2022-11-28T09:41:03.410Z,4.20
2022-11-28T09:43:35.044Z,4.20
2022-11-28T09:46:07.215Z,4.20
2022-11-28T09:48:38.585Z,4.30
2022-11-28T09:51:30.524Z,4.30
2022-11-28T09:54:21.073Z,4.30
2022-11-28T09:56:48.993Z,4.30
2022-11-28T09:59:30.250Z,4.30
2022-11-28T10:02:17.765Z,4.30
2022-11-28T10:04:55.583Z,4.40
2022-11-28T10:07:25.917Z,4.40
2022-11-28T10:10:00.822Z,4.40
2022-11-28T10:12:46.133Z,4.50
2022-11-28T10:15:21.998Z,4.50
2022-11-28T10:18:13.087Z,4.60
2022-11-28T10:20:43.301Z,4.60
2022-11-28T10:23:24.499Z,4.70
2022-11-28T10:26:04.793Z,4.70
2022-11-28T10:28:36.128Z,4.80
2022-11-28T10:31:35.145Z,4.80
2022-11-28T10:34:26.713Z,4.80
2022-11-28T10:37:13.611Z,4.90
2022-11-28T10:39:45.254Z,4.90
2022-11-28T10:42:23.997Z,4.90
2022-11-28T10:45:00.009Z,5.00
2022-11-28T10:47:29.593Z,5.00
2022-11-28T10:50:06.624Z,5.10
2022-11-28T10:52:38.198Z,5.10
2022-11-28T10:55:26.529Z,5.10
2022-11-28T10:58:28.893Z,5.10
2022-11-28T11:00:57.488Z,5.10
2022-11-28T11:03:30.771Z,5.10
2022-11-28T11:05:57.681Z,5.10
2022-11-28T11:08:29.663Z,5.10
2022-11-28T11:11:02.705Z,5.20
2022-11-28T11:13:32.247Z,5.20
2022-11-28T11:16:00.576Z,5.20
2022-11-28T11:18:30.746Z,5.20
2022-11-28T11:21:18.992Z,5.20
2022-11-28T11:23:47.027Z,5.30
2022-11-28T11:26:29.489Z,5.30
2022-11-28T11:28:56.992Z,5.30
2022-11-28T11:31:33.962Z,5.30
2022-11-28T11:34:06.658Z,5.40
2022-11-28T11:36:35.715Z,5.40
2022-11-28T11:39:11.445Z,5.30
2022-11-28T11:41:40.043Z,5.30
2022-11-28T11:44:16.180Z,5.30
2022-11-28T11:47:01.784Z,5.30
2022-11-28T11:49:34.350Z,5.30
2022-11-28T11:52:15.232Z,5.30
2022-11-28T11:54:57.246Z,5.30
2022-11-28T11:57:38.709Z,5.30
2022-11-28T12:00:11.928Z,5.30
2022-11-28T12:03:10.632Z,5.30
2022-11-28T12:09:00.232Z,5.30
2022-11-28T12:11:31.990Z,5.30
2022-11-28T12:14:05.020Z,5.30
2022-11-28T12:16:46.437Z,5.30
2022-11-28T12:19:23.837Z,5.40
2022-11-28T12:22:12.197Z,5.30
2022-11-28T12:24:48.125Z,5.30
2022-11-28T12:27:39.857Z,5.30
2022-11-28T12:30:18.593Z,5.20
2022-11-28T12:33:20.536Z,5.20
2022-11-28T12:36:19.136Z,5.20
2022-11-28T12:39:01.127Z,5.10
2022-11-28T12:41:37.011Z,5.10
2022-11-28T12:44:29.235Z,5.10
2022-11-28T12:47:16.306Z,5.10
2022-11-28T12:49:59.388Z,5.20
2022-11-28T12:52:32.027Z,5.10
2022-11-28T12:55:03.253Z,5.10
2022-11-28T12:57:53.430Z,5.10
2022-11-28T13:00:24.133Z,5.10
2022-11-28T13:03:30.035Z,5.10
2022-11-28T13:06:06.701Z,5.10
2022-11-28T13:08:49.292Z,5.10
2022-11-28T13:11:35.939Z,5.10
2022-11-28T13:14:14.461Z,5.10
2022-11-28T13:16:50.647Z,5.00
2022-11-28T13:19:27.641Z,5.00
2022-11-28T13:22:17.258Z,5.00
2022-11-28T13:25:04.080Z,5.00
2022-11-28T13:27:33.236Z,5.00
2022-11-28T13:30:14.376Z,4.90
2022-11-28T13:33:02.651Z,4.90
2022-11-28T13:35:30.160Z,4.90
2022-11-28T13:40:52.132Z,4.90
2022-11-28T13:43:37.980Z,4.80
2022-11-28T13:46:08.081Z,4.80
2022-11-28T13:49:06.115Z,4.80
2022-11-28T13:51:32.243Z,4.80
2022-11-28T13:54:20.602Z,4.80
2022-11-28T13:57:38.092Z,4.70
2022-11-28T14:00:27.895Z,4.70
2022-11-28T14:02:59.940Z,4.70
2022-11-28T14:05:37.080Z,4.70
2022-11-28T14:08:05.700Z,4.70
2022-11-28T14:11:10.379Z,4.60
2022-11-28T14:13:50.757Z,4.60
2022-11-28T14:16:54.591Z,4.60
2022-11-28T14:19:50.839Z,4.60
2022-11-28T14:22:31.907Z,4.50
2022-11-28T14:25:09.219Z,4.50
2022-11-28T14:27:39.969Z,4.50
2022-11-28T14:30:23.077Z,4.50
2022-11-28T14:32:59.995Z,4.40
2022-11-28T14:35:52.370Z,4.40
2022-11-28T14:38:31.767Z,4.40
2022-11-28T14:41:15.307Z,4.40
2022-11-28T14:43:47.806Z,4.40
2022-11-28T14:46:24.583Z,4.40
2022-11-28T14:48:59.308Z,4.30
2022-11-28T14:51:47.231Z,4.40
2022-11-28T14:54:37.141Z,4.30
2022-11-28T14:57:18.034Z,4.30
2022-11-28T14:59:47.038Z,4.30
2022-11-28T15:02:16.774Z,4.30
2022-11-28T15:04:53.789Z,4.30
2022-11-28T15:07:46.736Z,4.30
2022-11-28T15:10:20.795Z,4.30
2022-11-28T15:13:24.546Z,4.30
2022-11-28T15:15:53.403Z,4.20
2022-11-28T15:18:23.304Z,4.20
2022-11-28T15:21:15.218Z,4.20
2022-11-28T15:23:43.396Z,4.20
2022-11-28T15:26:27.314Z,4.20
2022-11-28T15:29:21.954Z,4.20
2022-11-28T15:31:51.719Z,4.20
2022-11-28T15:34:30.237Z,4.20
2022-11-28T15:37:05.727Z,4.20
2022-11-28T15:39:41.848Z,4.20
2022-11-28T15:42:24.646Z,4.10
2022-11-28T15:45:07.826Z,4.10
2022-11-28T15:47:34.922Z,4.10
2022-11-28T15:50:17.178Z,4.10
2022-11-28T15:53:00.966Z,4.10
2022-11-28T15:55:32.039Z,4.20
2022-11-28T15:58:17.742Z,4.10
2022-11-28T16:00:48.861Z,4.10
2022-11-28T16:03:19.674Z,4.10
2022-11-28T16:05:48.901Z,4.10
2022-11-28T16:08:27.847Z,4.10
2022-11-28T16:10:56.336Z,4.10
2022-11-28T16:13:24.955Z,4.10
2022-11-28T16:15:56.073Z,4.10
2022-11-28T16:18:25.615Z,4.10
2022-11-28T16:20:52.720Z,4.10
2022-11-28T16:23:28.380Z,4.00
2022-11-28T16:26:23.040Z,4.10
2022-11-28T16:29:03.629Z,4.10
2022-11-28T16:31:30.648Z,4.10
2022-11-28T16:33:58.765Z,4.10
2022-11-28T16:36:33.851Z,4.10
2022-11-28T16:39:11.859Z,4.00
2022-11-28T16:41:42.439Z,4.10
2022-11-28T16:44:15.593Z,4.00
2022-11-28T16:46:51.548Z,4.10
2022-11-28T16:49:38.087Z,4.10
2022-11-28T16:52:24.040Z,4.00
2022-11-28T16:54:52.471Z,4.10
2022-11-28T16:57:20.378Z,4.10
2022-11-28T16:59:48.756Z,4.00
2022-11-28T17:02:26.859Z,4.00
2022-11-28T17:04:53.861Z,4.00
2022-11-28T17:07:23.370Z,4.00
2022-11-28T17:09:51.012Z,4.00
2022-11-28T17:12:27.574Z,4.00
2022-11-28T17:14:55.554Z,4.00
2022-11-28T17:17:23.566Z,4.00
2022-11-28T17:19:51.076Z,4.00
2022-11-28T17:22:21.901Z,4.00
2022-11-28T17:24:49.746Z,4.00
2022-11-28T17:27:16.660Z,4.00
2022-11-28T17:29:44.072Z,4.00
2022-11-28T17:32:13.497Z,3.90
2022-11-28T17:34:42.193Z,3.90
2022-11-28T17:37:09.934Z,3.90
2022-11-28T17:39:37.008Z,4.00
2022-11-28T17:42:04.369Z,4.00
2022-11-28T17:44:34.287Z,3.90
2022-11-28T17:47:02.771Z,3.90
2022-11-28T17:49:30.957Z,3.90
2022-11-28T17:51:58.689Z,3.90
2022-11-28T17:54:27.180Z,3.90
2022-11-28T17:56:54.955Z,3.90
2022-11-28T17:59:24.140Z,3.90
2022-11-28T18:01:51.583Z,3.90
2022-11-28T18:04:23.942Z,3.90
2022-11-28T18:06:50.891Z,3.90
2022-11-28T18:09:17.740Z,3.80
2022-11-28T18:11:46.776Z,3.90
2022-11-28T18:14:14.165Z,3.80
2022-11-28T18:16:43.768Z,3.80
2022-11-28T18:19:11.149Z,3.80
2022-11-28T18:21:39.010Z,3.80
2022-11-28T18:24:06.150Z,3.80
2022-11-28T18:26:33.113Z,3.80
2022-11-28T18:28:59.996Z,3.80
2022-11-28T18:31:29.675Z,3.80
2022-11-28T18:34:04.053Z,3.80
2022-11-28T18:36:34.885Z,3.80
2022-11-28T18:39:08.990Z,3.70
2022-11-28T18:41:36.263Z,3.70
2022-11-28T18:44:04.762Z,3.70
2022-11-28T18:46:33.613Z,3.70
2022-11-28T18:49:00.980Z,3.70
2022-11-28T18:51:33.433Z,3.70
2022-11-28T18:54:03.968Z,3.70
2022-11-28T18:56:31.811Z,3.70
2022-11-28T18:58:59.323Z,3.60
2022-11-28T19:01:30.274Z,3.60
2022-11-28T19:03:58.688Z,3.70
2022-11-28T19:06:25.768Z,3.70
2022-11-28T19:08:55.704Z,3.70
2022-11-28T19:11:23.395Z,3.60
2022-11-28T19:13:53.516Z,3.60
2022-11-28T19:16:26.991Z,3.60
2022-11-28T19:18:55.783Z,3.60
2022-11-28T19:21:25.119Z,3.60
2022-11-28T19:23:54.811Z,3.60
2022-11-28T19:26:26.196Z,3.60
2022-11-28T19:28:53.954Z,3.60
2022-11-28T19:31:23.544Z,3.60
2022-11-28T19:34:01.200Z,3.60
2022-11-28T19:36:33.995Z,3.60
2022-11-28T19:39:01.085Z,3.60
2022-11-28T19:41:30.030Z,3.60
2022-11-28T19:43:57.412Z,3.60
2022-11-28T19:46:26.396Z,3.60
2022-11-28T19:48:57.065Z,3.60
2022-11-28T19:51:23.942Z,3.50
2022-11-28T19:53:50.898Z,3.50
2022-11-28T19:56:20.588Z,3.50
2022-11-28T19:58:47.604Z,3.50
2022-11-28T20:01:18.875Z,3.50
2022-11-28T20:03:49.653Z,3.50
2022-11-28T20:06:23.829Z,3.50
2022-11-28T20:08:52.597Z,3.50
2022-11-28T20:11:23.188Z,3.50
2022-11-28T20:13:55.936Z,3.50
2022-11-28T20:16:23.221Z,3.50
2022-11-28T20:18:50.078Z,3.40
2022-11-28T20:21:18.827Z,3.50
2022-11-28T20:23:52.231Z,3.50
2022-11-28T20:26:21.349Z,3.50
2022-11-28T20:28:48.799Z,3.50
2022-11-28T20:31:22.951Z,3.50
2022-11-28T20:33:51.837Z,3.40
2022-11-28T20:36:22.200Z,3.40
2022-11-28T20:38:50.090Z,3.40
2022-11-28T20:41:19.058Z,3.40
2022-11-28T20:43:46.260Z,3.40
2022-11-28T20:46:27.098Z,3.40
2022-11-28T20:48:54.521Z,3.50
2022-11-28T20:51:24.956Z,3.40
2022-11-28T20:53:52.405Z,3.40
2022-11-28T20:56:21.488Z,3.40
2022-11-28T20:58:49.461Z,3.40
2022-11-28T21:01:19.188Z,3.40
2022-11-28T21:03:47.003Z,3.40
2022-11-28T21:06:14.245Z,3.40
2022-11-28T21:08:41.090Z,3.40
2022-11-28T21:11:10.839Z,3.40
2022-11-28T21:13:38.526Z,3.40
2022-11-28T21:16:12.055Z,3.40
2022-11-28T21:18:40.713Z,3.40
2022-11-28T21:21:09.302Z,3.40
2022-11-28T21:23:37.100Z,3.40
2022-11-28T21:26:28.783Z,3.40
2022-11-28T21:29:00.329Z,3.40
2022-11-28T21:31:31.710Z,3.40
2022-11-28T21:33:59.670Z,3.40
2022-11-28T21:36:28.939Z,3.40
2022-11-28T21:38:58.169Z,3.40
2022-11-28T21:41:32.249Z,3.40
2022-11-28T21:44:00.452Z,3.40
2022-11-28T21:46:28.416Z,3.40
2022-11-28T21:48:55.342Z,3.30
2022-11-28T21:51:24.551Z,3.40
2022-11-28T21:53:51.974Z,3.30
2022-11-28T21:56:19.237Z,3.30
2022-11-28T21:58:46.156Z,3.30
2022-11-28T22:01:14.879Z,3.30
2022-11-28T22:03:43.844Z,3.30
2022-11-28T22:06:22.527Z,3.30
2022-11-28T22:08:50.227Z,3.30
2022-11-28T22:11:18.235Z,3.30
2022-11-28T22:13:46.392Z,3.30
2022-11-28T22:16:16.994Z,3.30
2022-11-28T22:18:44.912Z,3.30
2022-11-28T22:21:49.792Z,3.30
2022-11-28T22:23:59.436Z,3.30
2022-11-28T22:26:26.536Z,3.30
2022-11-28T22:28:54.063Z,3.30
2022-11-28T22:31:23.235Z,3.30
2022-11-28T22:33:50.831Z,3.30
2022-11-28T22:36:20.073Z,3.30
2022-11-28T22:38:49.491Z,3.30
2022-11-28T22:41:27.837Z,3.20
2022-11-28T22:43:59.044Z,3.20
2022-11-28T22:46:26.900Z,3.20
2022-11-28T22:48:53.935Z,3.20
2022-11-28T22:51:24.353Z,3.30
2022-11-28T22:53:56.117Z,3.30
2022-11-28T22:56:26.021Z,3.30
2022-11-28T22:58:52.955Z,3.20
2022-11-28T23:01:31.272Z,3.20
2022-11-28T23:03:59.964Z,3.30
2022-11-28T23:06:29.856Z,3.20
2022-11-28T23:09:01.758Z,3.20
2022-11-28T23:11:35.394Z,3.30
2022-11-28T23:14:07.745Z,3.30
2022-11-28T23:16:38.665Z,3.30
2022-11-28T23:19:10.211Z,3.30
2022-11-28T23:21:39.697Z,3.30
2022-11-28T23:24:07.897Z,3.30
2022-11-28T23:26:35.142Z,3.30
2022-11-28T23:29:04.917Z,3.30
2022-11-28T23:31:34.353Z,3.30
2022-11-28T23:34:01.915Z,3.30
2022-11-28T23:36:41.477Z,3.20
2022-11-28T23:39:15.510Z,3.20
2022-11-28T23:41:43.252Z,3.20
2022-11-28T23:44:12.104Z,3.20
2022-11-28T23:46:39.581Z,3.20
2022-11-28T23:49:07.188Z,3.20
2022-11-28T23:51:34.433Z,3.20
2022-11-28T23:54:01.371Z,3.20
2022-11-28T23:56:32.748Z,3.20
2022-11-28T23:59:01.809Z,3.20
